Time;durP1;ratioP1;P1;durP2;ratioP2;P2;SDS_P1;SDS_P2;PMS_P1;PMS_P2;Temp;Humidity;BMP_temperature;BMP_pressure;BME280_temperature;BME280_humidity;BME280_pressure;Samples;Min_cycle;Max_cycle;Signal;HPM_P1;HPM_P2
2023/01/19 00:01:29;;;;;;;;;;;-1.60;99.90;;;;;;5091670;28;19953;-71
2023/01/19 00:03:55;;;;;;;;;;;-1.50;99.90;;;;;;5092079;28;19960;-71
2023/01/19 00:06:22;;;;;;;;;;;-1.60;99.90;;;;;;5092826;28;19912;-72
2023/01/19 00:08:51;;;;;;;;;;;-1.60;99.90;;;;;;5091315;28;19943;-72
2023/01/19 00:11:18;;;;;;;;;;;-1.70;99.90;;;;;;5091840;28;20357;-72
2023/01/19 00:13:50;;;;;;;;;;;-1.70;99.90;;;;;;5091920;28;19913;-72
2023/01/19 00:16:18;;;;;;;;;;;-1.70;99.90;;;;;;5091172;28;19923;-72
2023/01/19 00:18:44;;;;;;;;;;;-1.70;99.90;;;;;;5090777;28;19951;-72
2023/01/19 00:21:10;;;;;;;;;;;-1.60;99.90;;;;;;5091713;28;19915;-72
2023/01/19 00:23:35;;;;;;;;;;;-1.50;99.90;;;;;;5091972;28;20286;-72
2023/01/19 00:26:01;;;;;;;;;;;-1.50;99.90;;;;;;5091617;28;19942;-72
2023/01/19 00:28:28;;;;;;;;;;;-1.40;99.90;;;;;;5091357;28;19912;-68
2023/01/19 00:30:54;;;;;;;;;;;-1.40;99.90;;;;;;5091289;28;20290;-72
2023/01/19 00:33:20;;;;;;;;;;;-1.40;99.90;;;;;;5092493;28;19991;-72
2023/01/19 00:35:50;;;;;;;;;;;-1.40;99.90;;;;;;5094139;28;19940;-72
2023/01/19 00:38:15;;;;;;;;;;;-1.40;99.90;;;;;;5097365;28;19998;-72
2023/01/19 00:40:42;;;;;;;;;;;-1.50;99.90;;;;;;5096590;28;19999;-72
2023/01/19 00:43:08;;;;;;;;;;;-1.50;99.90;;;;;;5095083;28;19912;-72
2023/01/19 00:45:34;;;;;;;;;;;-1.50;99.90;;;;;;5095088;28;19916;-72
2023/01/19 00:48:00;;;;;;;;;;;-1.50;99.90;;;;;;5096526;28;20343;-72
2023/01/19 00:50:26;;;;;;;;;;;-1.50;99.90;;;;;;5097049;28;19957;-72
2023/01/19 00:52:56;;;;;;;;;;;-1.50;99.90;;;;;;5095381;28;19912;-72
2023/01/19 00:55:22;;;;;;;;;;;-1.40;99.90;;;;;;5093859;28;19912;-72
2023/01/19 00:57:48;;;;;;;;;;;-1.40;99.90;;;;;;5095278;28;19954;-72
2023/01/19 01:00:16;;;;;;;;;;;-1.40;99.90;;;;;;5076749;28;19943;-72
2023/01/19 01:02:43;;;;;;;;;;;-1.40;99.90;;;;;;5094438;28;19999;-72
2023/01/19 01:05:09;;;;;;;;;;;-1.40;99.90;;;;;;5094673;28;19923;-72
2023/01/19 01:07:43;;;;;;;;;;;-1.40;99.90;;;;;;5095347;28;19995;-72
2023/01/19 01:10:10;;;;;;;;;;;-1.50;99.90;;;;;;5095709;28;19985;-72
2023/01/19 01:12:37;;;;;;;;;;;-1.70;99.90;;;;;;5093784;28;19912;-72
2023/01/19 01:15:03;;;;;;;;;;;-1.80;99.90;;;;;;5094719;28;19912;-72
2023/01/19 01:17:29;;;;;;;;;;;-1.70;99.90;;;;;;5087923;28;19924;-72
2023/01/19 01:19:55;;;;;;;;;;;-1.80;99.90;;;;;;5072918;28;19917;-72
2023/01/19 01:22:20;;;;;;;;;;;-1.80;99.90;;;;;;5054275;28;19916;-72
2023/01/19 01:24:47;;;;;;;;;;;-1.80;99.90;;;;;;5036632;28;19925;-72
2023/01/19 01:27:13;;;;;;;;;;;-1.70;99.90;;;;;;5052787;28;19913;-72
2023/01/19 01:29:40;;;;;;;;;;;-1.80;99.90;;;;;;5074384;28;19918;-72
2023/01/19 01:32:06;;;;;;;;;;;-1.80;99.90;;;;;;5073584;28;19943;-72
2023/01/19 01:34:32;;;;;;;;;;;-1.70;99.90;;;;;;5074263;28;19913;-72
2023/01/19 01:36:57;;;;;;;;;;;-1.50;99.90;;;;;;5074039;28;19920;-69
2023/01/19 01:39:23;;;;;;;;;;;-1.60;99.90;;;;;;5074081;28;19939;-72
2023/01/19 01:41:49;;;;;;;;;;;-1.60;99.90;;;;;;5074189;28;20349;-72
2023/01/19 01:44:33;;;;;;;;;;;-1.80;99.90;;;;;;5073502;28;19924;-72
2023/01/19 01:46:59;;;;;;;;;;;-1.90;99.90;;;;;;5073299;28;19912;-72
2023/01/19 01:49:26;;;;;;;;;;;-1.90;99.90;;;;;;5074027;28;20268;-72
2023/01/19 01:51:54;;;;;;;;;;;-1.80;99.90;;;;;;5056195;28;20431;-72
2023/01/19 01:54:24;;;;;;;;;;;-1.70;99.90;;;;;;5055793;28;20271;-72
2023/01/19 01:56:51;;;;;;;;;;;-1.60;99.90;;;;;;5073479;28;19975;-71
2023/01/19 01:59:28;;;;;;;;;;;-1.50;99.90;;;;;;5073025;28;20279;-72
2023/01/19 02:04:52;;;;;;;;;;;-1.40;99.90;;;;;;5073831;28;19966;-72
2023/01/19 02:13:19;;;;;;;;;;;-1.90;99.90;;;;;;5075497;28;19919;-72
2023/01/19 02:15:52;;;;;;;;;;;-2.20;99.90;;;;;;5074608;28;19962;-72
2023/01/19 02:18:19;;;;;;;;;;;-2.20;99.90;;;;;;5079167;28;19920;-72
2023/01/19 02:20:49;;;;;;;;;;;-2.10;99.90;;;;;;5095281;28;20447;-73
2023/01/19 02:23:18;;;;;;;;;;;-2.10;99.90;;;;;;5095245;28;19923;-72
2023/01/19 02:25:44;;;;;;;;;;;-1.90;99.90;;;;;;5095329;28;19987;-73
2023/01/19 02:28:10;;;;;;;;;;;-1.80;99.90;;;;;;5092374;28;19912;-73
2023/01/19 02:30:37;;;;;;;;;;;-1.70;99.90;;;;;;5092825;28;19912;-72
2023/01/19 02:33:03;;;;;;;;;;;-1.60;99.90;;;;;;5092015;28;19919;-72
2023/01/19 02:35:29;;;;;;;;;;;-1.60;99.90;;;;;;5125681;27;20272;-72
2023/01/19 02:37:57;;;;;;;;;;;-1.60;99.90;;;;;;5091823;28;19916;-73
2023/01/19 02:40:23;;;;;;;;;;;-1.70;99.90;;;;;;5092221;28;20393;-72
2023/01/19 02:42:50;;;;;;;;;;;-1.70;99.90;;;;;;5092035;28;19939;-72
2023/01/19 02:45:18;;;;;;;;;;;-1.70;99.90;;;;;;5092592;28;20265;-72
2023/01/19 02:47:46;;;;;;;;;;;-1.70;99.90;;;;;;5092557;28;20332;-73
2023/01/19 02:50:30;;;;;;;;;;;-1.80;99.90;;;;;;5092283;28;19919;-72
2023/01/19 02:53:02;;;;;;;;;;;-1.80;99.90;;;;;;5093552;28;19918;-67
2023/01/19 02:55:28;;;;;;;;;;;-1.70;99.90;;;;;;5091249;28;20275;-72
2023/01/19 02:58:00;;;;;;;;;;;-1.60;99.90;;;;;;5093057;28;19919;-73
2023/01/19 03:00:45;;;;;;;;;;;-1.60;99.90;;;;;;5093457;28;19912;-72
2023/01/19 03:03:16;;;;;;;;;;;-1.50;99.90;;;;;;5088274;28;19913;-73
2023/01/19 03:06:02;;;;;;;;;;;-1.50;99.90;;;;;;5092654;28;19916;-67
2023/01/19 03:08:33;;;;;;;;;;;-1.60;99.90;;;;;;5091467;28;19920;-72
2023/01/19 03:11:03;;;;;;;;;;;-1.60;99.90;;;;;;5093560;28;19965;-72
2023/01/19 03:13:46;;;;;;;;;;;-1.50;99.90;;;;;;5094535;28;19912;-72
2023/01/19 03:16:19;;;;;;;;;;;-1.50;99.90;;;;;;5092596;28;19965;-72
2023/01/19 03:18:47;;;;;;;;;;;-1.60;99.90;;;;;;5094295;28;19920;-72
2023/01/19 03:21:15;;;;;;;;;;;-1.70;99.90;;;;;;5094289;28;19912;-72
2023/01/19 03:23:43;;;;;;;;;;;-1.70;99.90;;;;;;5094118;28;19922;-67
2023/01/19 03:26:10;;;;;;;;;;;-1.70;99.90;;;;;;5092953;28;19912;-67
2023/01/19 03:28:38;;;;;;;;;;;-1.80;99.90;;;;;;5094267;28;19957;-67
2023/01/19 03:31:09;;;;;;;;;;;-1.70;99.90;;;;;;5094586;28;19939;-71
2023/01/19 03:33:36;;;;;;;;;;;-1.80;99.90;;;;;;5094438;28;19923;-68
2023/01/19 03:36:04;;;;;;;;;;;-1.80;99.90;;;;;;5094612;28;19913;-72
2023/01/19 03:38:34;;;;;;;;;;;-1.70;99.90;;;;;;5094203;28;19913;-72
2023/01/19 03:41:01;;;;;;;;;;;-1.60;99.90;;;;;;5093018;28;20313;-70
2023/01/19 03:43:27;;;;;;;;;;;-1.60;99.90;;;;;;5094317;28;19920;-71
2023/01/19 03:45:54;;;;;;;;;;;-1.40;99.90;;;;;;5094329;28;19916;-69
2023/01/19 03:48:20;;;;;;;;;;;-1.50;99.90;;;;;;5093951;28;19916;-71
2023/01/19 03:50:46;;;;;;;;;;;-1.50;99.90;;;;;;5092755;28;19957;-72
2023/01/19 03:53:13;;;;;;;;;;;-1.40;99.90;;;;;;5092787;28;19912;-68
2023/01/19 03:55:40;;;;;;;;;;;-1.50;99.90;;;;;;5092675;28;19919;-67
2023/01/19 03:58:05;;;;;;;;;;;-1.50;99.90;;;;;;5093760;28;20363;-67
2023/01/19 04:00:32;;;;;;;;;;;-1.50;99.90;;;;;;5094148;28;19919;-67
2023/01/19 04:02:57;;;;;;;;;;;-1.50;99.90;;;;;;5092891;28;19919;-70
2023/01/19 04:05:23;;;;;;;;;;;-1.40;99.90;;;;;;5093781;28;19920;-72
2023/01/19 04:07:49;;;;;;;;;;;-1.50;99.90;;;;;;5094128;28;19943;-68
2023/01/19 04:10:15;;;;;;;;;;;-1.40;99.90;;;;;;5097647;28;19916;-72
2023/01/19 04:12:41;;;;;;;;;;;-1.40;99.90;;;;;;5097766;28;19913;-68
2023/01/19 04:15:07;;;;;;;;;;;-1.30;99.90;;;;;;5097627;28;19920;-69
2023/01/19 04:17:32;;;;;;;;;;;-1.30;99.90;;;;;;5090662;28;20349;-67
2023/01/19 04:19:59;;;;;;;;;;;-1.40;99.90;;;;;;5059664;28;19918;-72
2023/01/19 04:22:24;;;;;;;;;;;-1.30;99.90;;;;;;5077341;28;20336;-72
2023/01/19 04:24:50;;;;;;;;;;;-1.20;99.90;;;;;;5077350;28;19960;-68
2023/01/19 04:27:16;;;;;;;;;;;-1.30;99.90;;;;;;5077394;28;19916;-72
2023/01/19 04:29:42;;;;;;;;;;;-1.30;99.90;;;;;;5059183;28;20352;-72
2023/01/19 04:32:07;;;;;;;;;;;-1.30;99.90;;;;;;5077251;28;19917;-70
2023/01/19 04:34:33;;;;;;;;;;;-1.30;99.90;;;;;;5077167;28;20355;-72
2023/01/19 04:36:59;;;;;;;;;;;-1.40;99.90;;;;;;5077277;28;20356;-71
2023/01/19 04:39:24;;;;;;;;;;;-1.40;99.90;;;;;;5059033;28;19959;-72
2023/01/19 04:41:51;;;;;;;;;;;-1.50;99.90;;;;;;5076907;28;19978;-69
2023/01/19 04:44:16;;;;;;;;;;;-1.50;99.90;;;;;;5076878;28;19920;-73
2023/01/19 04:46:42;;;;;;;;;;;-1.50;99.90;;;;;;5076890;28;19912;-71
2023/01/19 04:49:08;;;;;;;;;;;-1.50;99.90;;;;;;5076973;28;19913;-73
2023/01/19 04:51:34;;;;;;;;;;;-1.50;99.90;;;;;;5076900;28;20275;-69
2023/01/19 04:54:00;;;;;;;;;;;-1.40;99.90;;;;;;5076812;28;19912;-71
2023/01/19 04:56:26;;;;;;;;;;;-1.40;99.90;;;;;;5076639;28;19999;-73
2023/01/19 04:58:52;;;;;;;;;;;-1.40;99.90;;;;;;5076776;28;20003;-70
2023/01/19 05:01:17;;;;;;;;;;;-1.40;99.90;;;;;;5076450;28;19982;-73
2023/01/19 05:03:43;;;;;;;;;;;-1.60;99.90;;;;;;5076458;28;19983;-72
2023/01/19 05:06:08;;;;;;;;;;;-1.70;99.90;;;;;;5058745;28;19916;-73
2023/01/19 05:08:34;;;;;;;;;;;-1.70;99.90;;;;;;5076633;28;19916;-68
2023/01/19 05:11:00;;;;;;;;;;;-1.60;99.90;;;;;;5076293;28;19913;-72
2023/01/19 05:13:25;;;;;;;;;;;-1.70;99.90;;;;;;5076310;28;19912;-73
2023/01/19 05:15:51;;;;;;;;;;;-1.60;99.90;;;;;;5076237;28;19912;-73
2023/01/19 05:18:17;;;;;;;;;;;-1.60;99.90;;;;;;5089071;28;19916;-72
2023/01/19 05:20:42;;;;;;;;;;;-1.60;99.90;;;;;;5095934;28;20318;-72
2023/01/19 05:23:08;;;;;;;;;;;-1.70;99.90;;;;;;5093464;28;19982;-68
2023/01/19 05:25:33;;;;;;;;;;;-1.80;99.90;;;;;;5085784;28;19920;-72
2023/01/19 05:27:59;;;;;;;;;;;-1.90;99.90;;;;;;5095562;28;19913;-68
2023/01/19 05:30:25;;;;;;;;;;;-1.90;99.90;;;;;;5095147;28;20001;-73
2023/01/19 05:32:50;;;;;;;;;;;-1.70;99.90;;;;;;5096387;28;20271;-72
2023/01/19 05:35:16;;;;;;;;;;;-1.70;99.90;;;;;;5096395;28;19974;-72
2023/01/19 05:37:41;;;;;;;;;;;-1.60;99.90;;;;;;5096166;28;19918;-68
2023/01/19 05:40:08;;;;;;;;;;;-1.50;99.90;;;;;;5094920;28;19912;-73
2023/01/19 05:42:33;;;;;;;;;;;-1.50;99.90;;;;;;5094921;28;19943;-72
2023/01/19 05:44:59;;;;;;;;;;;-1.40;99.90;;;;;;5095023;28;19974;-72
2023/01/19 05:47:24;;;;;;;;;;;-1.40;99.90;;;;;;5095034;28;19957;-71
2023/01/19 05:49:50;;;;;;;;;;;-1.40;99.90;;;;;;5094678;28;19912;-71
2023/01/19 05:52:16;;;;;;;;;;;-1.50;99.90;;;;;;5095940;28;19912;-71
2023/01/19 05:54:41;;;;;;;;;;;-1.40;99.90;;;;;;5095263;28;20245;-70
2023/01/19 05:57:07;;;;;;;;;;;-1.20;99.90;;;;;;5094139;28;19912;-71
2023/01/19 05:59:32;;;;;;;;;;;-1.30;99.90;;;;;;5094189;28;19916;-71
2023/01/19 06:01:58;;;;;;;;;;;-1.20;99.90;;;;;;5095223;28;20447;-68
2023/01/19 06:04:24;;;;;;;;;;;-1.20;99.90;;;;;;5095321;28;19920;-70
2023/01/19 06:06:50;;;;;;;;;;;-1.20;99.90;;;;;;5095639;28;20378;-71
2023/01/19 06:09:16;;;;;;;;;;;-1.20;99.90;;;;;;5094497;28;20693;-71
2023/01/19 06:11:42;;;;;;;;;;;-1.20;99.90;;;;;;5095895;28;19957;-69
2023/01/19 06:14:08;;;;;;;;;;;-1.20;99.90;;;;;;5092852;28;20279;-69
2023/01/19 06:16:34;;;;;;;;;;;-1.10;99.90;;;;;;5093700;28;19944;-70
2023/01/19 06:18:59;;;;;;;;;;;-1.20;99.90;;;;;;5086382;28;20012;-66
2023/01/19 06:21:25;;;;;;;;;;;-1.00;99.90;;;;;;5092081;28;19919;-70
2023/01/19 06:23:53;;;;;;;;;;;-1.10;99.90;;;;;;5092480;28;20209;-71
2023/01/19 06:26:18;;;;;;;;;;;-1.00;99.90;;;;;;5092803;28;20252;-71
2023/01/19 06:28:45;;;;;;;;;;;-1.00;99.90;;;;;;5074481;28;20376;-71
2023/01/19 06:31:10;;;;;;;;;;;-0.90;99.90;;;;;;5065458;28;20382;-73
2023/01/19 06:33:36;;;;;;;;;;;-0.90;99.90;;;;;;5057425;28;19913;-72
2023/01/19 06:36:02;;;;;;;;;;;-1.00;99.90;;;;;;5055729;28;19916;-73
2023/01/19 06:38:27;;;;;;;;;;;-1.00;99.90;;;;;;5066007;28;19912;-72
2023/01/19 06:40:57;;;;;;;;;;;-1.10;99.90;;;;;;5057324;28;20264;-72
2023/01/19 06:43:23;;;;;;;;;;;-1.00;99.90;;;;;;5074830;28;19916;-71
2023/01/19 06:45:49;;;;;;;;;;;-1.20;99.90;;;;;;5082469;28;19916;-72
2023/01/19 06:48:14;;;;;;;;;;;-1.20;99.90;;;;;;5078138;28;19916;-67
2023/01/19 06:50:40;;;;;;;;;;;-1.30;99.90;;;;;;5072221;28;19912;-67
2023/01/19 06:53:06;;;;;;;;;;;-1.20;99.90;;;;;;5047806;28;19916;-70
2023/01/19 06:55:31;;;;;;;;;;;-1.30;99.90;;;;;;5072114;28;19913;-70
2023/01/19 06:57:58;;;;;;;;;;;-1.30;99.90;;;;;;5055448;28;20057;-67
2023/01/19 07:00:24;;;;;;;;;;;-1.40;99.90;;;;;;5071592;28;20062;-74
2023/01/19 07:02:49;;;;;;;;;;;-1.30;99.90;;;;;;5072071;28;20272;-73
2023/01/19 07:05:15;;;;;;;;;;;-1.30;99.90;;;;;;5072319;28;19920;-73
2023/01/19 07:07:42;;;;;;;;;;;-1.20;99.90;;;;;;5069573;28;19913;-66
2023/01/19 07:10:08;;;;;;;;;;;-1.20;99.90;;;;;;5067922;28;19920;-74
2023/01/19 07:12:34;;;;;;;;;;;-1.10;99.90;;;;;;5072395;28;19913;-68
2023/01/19 07:14:59;;;;;;;;;;;-1.10;99.90;;;;;;5073437;28;19920;-71
2023/01/19 07:17:25;;;;;;;;;;;-0.90;99.90;;;;;;5079084;28;19923;-74
2023/01/19 07:19:51;;;;;;;;;;;-0.70;99.90;;;;;;5093357;28;19919;-74
2023/01/19 07:22:17;;;;;;;;;;;-0.70;99.90;;;;;;5092193;28;19916;-75
2023/01/19 07:24:42;;;;;;;;;;;-0.90;99.90;;;;;;5070693;28;20054;-66
2023/01/19 07:27:10;;;;;;;;;;;-0.90;99.90;;;;;;5070906;28;20458;-75
2023/01/19 07:29:36;;;;;;;;;;;-0.90;99.90;;;;;;5072177;28;20268;-74
2023/01/19 07:32:01;;;;;;;;;;;-0.90;99.90;;;;;;5073523;28;19913;-66
2023/01/19 07:34:27;;;;;;;;;;;-1.00;99.90;;;;;;5072890;28;19912;-66
2023/01/19 07:36:54;;;;;;;;;;;-1.00;99.90;;;;;;5055805;28;19920;-67
2023/01/19 07:39:20;;;;;;;;;;;-1.10;99.90;;;;;;5082168;28;20253;-65
2023/01/19 07:41:46;;;;;;;;;;;-1.20;99.90;;;;;;5074259;28;19999;-72
2023/01/19 07:44:12;;;;;;;;;;;-1.30;99.90;;;;;;5076087;28;19947;-66
2023/01/19 07:46:37;;;;;;;;;;;-1.30;99.90;;;;;;5076448;28;20356;-67
2023/01/19 07:49:03;;;;;;;;;;;-1.30;99.90;;;;;;5090729;28;19916;-71
2023/01/19 07:51:29;;;;;;;;;;;-1.20;99.90;;;;;;5073301;28;20268;-66
2023/01/19 07:53:54;;;;;;;;;;;-1.10;99.90;;;;;;5074961;28;19916;-72
2023/01/19 07:56:21;;;;;;;;;;;-1.10;99.90;;;;;;5075753;28;19919;-66
2023/01/19 07:58:48;;;;;;;;;;;-0.90;99.90;;;;;;5078693;28;20360;-75
2023/01/19 08:01:14;;;;;;;;;;;-0.80;99.90;;;;;;5077046;28;19916;-75
2023/01/19 08:03:39;;;;;;;;;;;-0.70;99.90;;;;;;5076443;28;20360;-75
2023/01/19 08:06:05;;;;;;;;;;;-0.60;99.90;;;;;;5077190;28;19920;-70
2023/01/19 08:08:32;;;;;;;;;;;-0.60;99.90;;;;;;5060014;28;19916;-67
2023/01/19 08:10:58;;;;;;;;;;;-0.70;99.90;;;;;;5077317;28;19924;-75
2023/01/19 08:13:24;;;;;;;;;;;-0.50;99.90;;;;;;5059302;28;19920;-75
2023/01/19 08:15:50;;;;;;;;;;;-0.50;99.90;;;;;;5077256;28;19919;-66
2023/01/19 08:18:16;;;;;;;;;;;-0.40;99.90;;;;;;5086595;28;20002;-76
2023/01/19 08:20:42;;;;;;;;;;;-0.40;99.90;;;;;;5094136;28;20354;-70
2023/01/19 08:23:07;;;;;;;;;;;-0.20;99.90;;;;;;5096712;28;19947;-75
2023/01/19 08:25:43;;;;;;;;;;;-0.20;99.90;;;;;;5094423;28;19928;-73
2023/01/19 08:28:10;;;;;;;;;;;-0.30;99.90;;;;;;5097654;28;19916;-67
2023/01/19 08:30:36;;;;;;;;;;;-0.10;99.90;;;;;;5097655;28;19912;-74
2023/01/19 08:33:06;;;;;;;;;;;-0.10;99.90;;;;;;5097722;28;19916;-71
2023/01/19 08:35:33;;;;;;;;;;;-0.20;99.90;;;;;;5097676;28;19912;-74
2023/01/19 08:38:02;;;;;;;;;;;-0.20;99.90;;;;;;5097700;28;19998;-70
2023/01/19 08:40:28;;;;;;;;;;;-0.10;99.90;;;;;;5088567;28;20347;-70
2023/01/19 08:43:02;;;;;;;;;;;0.00;99.90;;;;;;5082495;28;19912;-73
2023/01/19 08:45:28;;;;;;;;;;;;;;;;;;5076904;28;19956;-67
2023/01/19 08:47:55;;;;;;;;;;;;;;;;;;5087654;28;20275;-71
2023/01/19 08:50:21;;;;;;;;;;;;;;;;;;5078342;28;19955;-73
2023/01/19 08:52:47;;;;;;;;;;;;;;;;;;5075793;28;19920;-69
2023/01/19 08:55:13;;;;;;;;;;;;;;;;;;5074816;28;20387;-72
2023/01/19 08:57:39;;;;;;;;;;;;;;;;;;5083898;28;20236;-65
2023/01/19 09:00:06;;;;;;;;;;;0.10;99.90;;;;;;5097117;28;20278;-67
2023/01/19 09:02:32;;;;;;;;;;;0.00;99.90;;;;;;5096944;28;20270;-66
2023/01/19 09:04:58;;;;;;;;;;;0.20;99.90;;;;;;5095625;28;19920;-69
2023/01/19 09:07:23;;;;;;;;;;;0.20;99.90;;;;;;5096919;28;19912;-68
2023/01/19 09:09:49;;;;;;;;;;;0.10;99.90;;;;;;5097124;28;19912;-66
2023/01/19 09:12:15;;;;;;;;;;;0.20;99.90;;;;;;5096845;28;19956;-73
2023/01/19 09:14:40;;;;;;;;;;;0.20;99.90;;;;;;5096786;28;19918;-66
2023/01/19 09:17:06;;;;;;;;;;;0.40;99.90;;;;;;5094231;28;20342;-69
2023/01/19 09:19:32;;;;;;;;;;;0.20;99.90;;;;;;5076272;28;19912;-70
2023/01/19 09:21:58;;;;;;;;;;;0.30;99.90;;;;;;5076524;28;20348;-72
2023/01/19 09:24:24;;;;;;;;;;;0.30;99.90;;;;;;5076440;28;20399;-73
2023/01/19 09:26:49;;;;;;;;;;;0.30;99.90;;;;;;5071941;28;19916;-74
2023/01/19 09:29:15;;;;;;;;;;;0.40;99.90;;;;;;5068300;28;19913;-72
2023/01/19 09:31:42;;;;;;;;;;;0.30;99.90;;;;;;5038523;28;19917;-65
2023/01/19 09:34:09;;;;;;;;;;;0.30;99.90;;;;;;5060580;28;19955;-70
2023/01/19 09:36:36;;;;;;;;;;;0.20;99.90;;;;;;5076655;28;19971;-73
2023/01/19 09:39:02;;;;;;;;;;;0.20;99.90;;;;;;5079612;28;19912;-65
2023/01/19 09:41:28;;;;;;;;;;;0.10;99.90;;;;;;5073754;28;19926;-69
2023/01/19 09:43:56;;;;;;;;;;;0.20;99.90;;;;;;5074182;28;19924;-71
2023/01/19 09:46:41;;;;;;;;;;;0.20;99.90;;;;;;5075875;28;19913;-65
2023/01/19 09:49:12;;;;;;;;;;;0.20;99.90;;;;;;5090297;28;20003;-68
2023/01/19 09:51:40;;;;;;;;;;;0.30;99.90;;;;;;5074870;28;19958;-67
2023/01/19 09:54:11;;;;;;;;;;;0.30;99.90;;;;;;5075672;28;20637;-72
2023/01/19 09:56:37;;;;;;;;;;;0.30;99.90;;;;;;5075615;28;19943;-68
2023/01/19 09:59:14;;;;;;;;;;;0.30;99.90;;;;;;5093445;28;19916;-67
2023/01/19 10:01:52;;;;;;;;;;;0.20;99.90;;;;;;5062589;28;19913;-67
2023/01/19 10:04:23;;;;;;;;;;;0.50;99.90;;;;;;5074123;28;19920;-73
2023/01/19 10:06:51;;;;;;;;;;;0.40;99.90;;;;;;5055848;28;19923;-67
2023/01/19 10:09:23;;;;;;;;;;;0.60;99.90;;;;;;5109243;28;20352;-73
2023/01/19 10:11:52;;;;;;;;;;;0.60;99.90;;;;;;5076923;28;20003;-68
2023/01/19 10:14:23;;;;;;;;;;;0.50;99.90;;;;;;5076975;28;19919;-72
2023/01/19 10:16:56;;;;;;;;;;;0.70;99.90;;;;;;5095171;28;19912;-67
2023/01/19 10:19:29;;;;;;;;;;;0.60;99.90;;;;;;5074845;28;19916;-66
2023/01/19 10:21:57;;;;;;;;;;;0.60;99.90;;;;;;5075035;28;19921;-73
2023/01/19 10:24:35;;;;;;;;;;;0.60;99.90;;;;;;5075360;28;20280;-71
2023/01/19 10:27:01;;;;;;;;;;;0.40;99.90;;;;;;5057612;28;19912;-72
2023/01/19 10:29:29;;;;;;;;;;;0.50;99.90;;;;;;5095337;28;19981;-73
2023/01/19 10:32:18;;;;;;;;;;;0.60;99.90;;;;;;5077437;28;20010;-72
2023/01/19 10:34:44;;;;;;;;;;;0.70;99.90;;;;;;5095374;28;20041;-73
2023/01/19 10:37:16;;;;;;;;;;;0.90;99.90;;;;;;5093683;28;20014;-66
2023/01/19 10:39:45;;;;;;;;;;;1.00;99.90;;;;;;5073801;28;19958;-67
2023/01/19 10:42:12;;;;;;;;;;;1.00;99.90;;;;;;5064040;28;19912;-66
2023/01/19 10:44:37;;;;;;;;;;;0.90;99.90;;;;;;5056197;28;20372;-73
2023/01/19 10:47:04;;;;;;;;;;;1.10;99.90;;;;;;5057235;28;19912;-70
2023/01/19 10:49:37;;;;;;;;;;;0.70;99.90;;;;;;5076877;28;20003;-67
2023/01/19 10:52:07;;;;;;;;;;;0.80;99.90;;;;;;5095083;28;19951;-67
2023/01/19 10:54:35;;;;;;;;;;;0.90;99.90;;;;;;5074737;28;19950;-69
2023/01/19 10:57:02;;;;;;;;;;;;;;;;;;5074746;28;19913;-74
2023/01/19 10:59:45;;;;;;;;;;;0.90;99.90;;;;;;5093463;28;19920;-73
2023/01/19 11:02:17;;;;;;;;;;;0.90;99.90;;;;;;5092666;28;19916;-67
2023/01/19 11:04:44;;;;;;;;;;;0.90;99.90;;;;;;5073375;28;19947;-67
2023/01/19 11:07:15;;;;;;;;;;;1.10;99.90;;;;;;5055025;28;19962;-69
2023/01/19 11:09:40;;;;;;;;;;;1.10;99.90;;;;;;5094541;28;19912;-74
2023/01/19 11:12:14;;;;;;;;;;;1.10;99.90;;;;;;5094496;28;19918;-74
2023/01/19 11:14:41;;;;;;;;;;;1.00;99.90;;;;;;5074842;28;19943;-75
2023/01/19 11:17:15;;;;;;;;;;;0.90;99.90;;;;;;5073118;28;19912;-75
2023/01/19 11:19:51;;;;;;;;;;;0.90;99.90;;;;;;5072083;28;20275;-72
2023/01/19 11:22:21;;;;;;;;;;;1.00;99.90;;;;;;5054709;28;19913;-75
2023/01/19 11:24:47;;;;;;;;;;;1.00;99.90;;;;;;5073017;28;20447;-74
2023/01/19 11:27:16;;;;;;;;;;;1.20;99.90;;;;;;5072901;28;19948;-70
2023/01/19 11:29:57;;;;;;;;;;;1.30;99.90;;;;;;5092506;28;19957;-72
2023/01/19 11:32:25;;;;;;;;;;;1.20;99.90;;;;;;5068104;28;20272;-70
2023/01/19 11:34:51;;;;;;;;;;;1.50;99.90;;;;;;5052158;28;19920;-72
2023/01/19 11:37:16;;;;;;;;;;;1.40;99.90;;;;;;5054884;28;19914;-72
2023/01/19 11:39:46;;;;;;;;;;;1.60;99.90;;;;;;5092210;28;19912;-71
2023/01/19 11:42:12;;;;;;;;;;;1.80;99.90;;;;;;5088450;28;20353;-71
2023/01/19 11:44:43;;;;;;;;;;;1.60;99.90;;;;;;5091877;28;19927;-70
2023/01/19 11:47:27;;;;;;;;;;;1.70;99.90;;;;;;5060954;28;19963;-67
2023/01/19 11:50:13;;;;;;;;;;;1.90;99.90;;;;;;5092851;28;19916;-71
2023/01/19 11:52:45;;;;;;;;;;;1.70;99.90;;;;;;5075875;28;20048;-68
2023/01/19 11:55:29;;;;;;;;;;;1.70;99.90;;;;;;5091979;28;19919;-67
2023/01/19 11:57:55;;;;;;;;;;;1.70;99.90;;;;;;5086206;28;20257;-72
2023/01/19 12:00:23;;;;;;;;;;;1.60;99.90;;;;;;5072502;28;19920;-69
2023/01/19 12:02:51;;;;;;;;;;;1.60;99.90;;;;;;5071736;28;19920;-66
2023/01/19 12:05:18;;;;;;;;;;;1.60;99.90;;;;;;5071437;28;19920;-67
2023/01/19 12:07:46;;;;;;;;;;;1.80;99.90;;;;;;5092053;28;20351;-72
2023/01/19 12:10:22;;;;;;;;;;;1.70;99.90;;;;;;5075262;28;20356;-70
2023/01/19 12:12:48;;;;;;;;;;;2.10;99.90;;;;;;5057509;28;20352;-67
2023/01/19 12:15:28;;;;;;;;;;;2.10;99.90;;;;;;5051564;28;19959;-70
2023/01/19 12:17:57;;;;;;;;;;;1.80;99.90;;;;;;5064857;28;19924;-72
2023/01/19 12:20:25;;;;;;;;;;;1.50;99.90;;;;;;5071378;28;19912;-70
2023/01/19 12:22:58;;;;;;;;;;;1.50;99.90;;;;;;5070142;28;19913;-72
2023/01/19 12:25:28;;;;;;;;;;;1.50;99.90;;;;;;5082015;28;20463;-72
2023/01/19 12:27:54;;;;;;;;;;;1.40;99.90;;;;;;5091787;28;20456;-73
2023/01/19 12:30:21;;;;;;;;;;;1.30;99.90;;;;;;5094192;28;20007;-70
2023/01/19 12:32:47;;;;;;;;;;;1.30;99.90;;;;;;5089074;28;19916;-66
2023/01/19 12:35:31;;;;;;;;;;;1.50;99.90;;;;;;5082066;28;20443;-67
2023/01/19 12:37:57;;;;;;;;;;;1.50;99.90;;;;;;5081332;28;19919;-70
2023/01/19 12:40:24;;;;;;;;;;;1.50;99.90;;;;;;5094249;28;19912;-72
2023/01/19 12:42:55;;;;;;;;;;;1.60;99.90;;;;;;5084858;28;19999;-67
2023/01/19 12:45:24;;;;;;;;;;;1.70;99.90;;;;;;5074735;28;19966;-72
2023/01/19 12:47:51;;;;;;;;;;;1.80;99.90;;;;;;5078512;28;20306;-72
2023/01/19 12:50:18;;;;;;;;;;;1.90;99.90;;;;;;5095035;28;19957;-71
2023/01/19 12:52:50;;;;;;;;;;;1.80;99.90;;;;;;5096430;28;19912;-71
2023/01/19 12:55:20;;;;;;;;;;;1.70;99.90;;;;;;5095185;28;20283;-70
2023/01/19 12:57:53;;;;;;;;;;;1.80;99.90;;;;;;5095152;28;20290;-72
2023/01/19 13:00:19;;;;;;;;;;;1.70;99.90;;;;;;5095278;28;19996;-72
2023/01/19 13:02:45;;;;;;;;;;;1.70;99.90;;;;;;5096915;28;19916;-71
2023/01/19 13:05:20;;;;;;;;;;;1.60;99.90;;;;;;5095145;28;19920;-72
2023/01/19 13:08:01;;;;;;;;;;;1.70;99.90;;;;;;5094714;28;20398;-72
2023/01/19 13:10:45;;;;;;;;;;;1.70;99.90;;;;;;5096500;28;19913;-73
2023/01/19 13:13:21;;;;;;;;;;;1.70;99.90;;;;;;5093959;28;20455;-72
2023/01/19 13:15:47;;;;;;;;;;;1.80;99.90;;;;;;5094732;28;19912;-73
2023/01/19 13:18:17;;;;;;;;;;;1.80;99.90;;;;;;5087615;28;19943;-72
2023/01/19 13:20:45;;;;;;;;;;;1.70;99.90;;;;;;5094690;28;20017;-72
2023/01/19 13:23:18;;;;;;;;;;;1.80;99.90;;;;;;5094287;28;19912;-73
2023/01/19 13:25:52;;;;;;;;;;;1.80;99.90;;;;;;5094533;28;20329;-73
2023/01/19 13:28:18;;;;;;;;;;;1.90;99.90;;;;;;5093893;28;19913;-72
2023/01/19 13:30:50;;;;;;;;;;;1.80;99.90;;;;;;5092948;28;19916;-72
2023/01/19 13:33:19;;;;;;;;;;;1.70;99.90;;;;;;5087024;28;19950;-72
2023/01/19 13:36:03;;;;;;;;;;;1.80;99.90;;;;;;5074914;28;20338;-73
2023/01/19 13:38:31;;;;;;;;;;;1.90;99.90;;;;;;5077781;28;19912;-68
2023/01/19 13:40:58;;;;;;;;;;;1.70;99.90;;;;;;5089118;28;19912;-73
2023/01/19 13:43:27;;;;;;;;;;;1.70;99.90;;;;;;5082956;28;20291;-66
2023/01/19 13:45:52;;;;;;;;;;;1.70;99.90;;;;;;5094028;28;19965;-73
2023/01/19 13:48:21;;;;;;;;;;;1.70;99.90;;;;;;5092742;28;19916;-73
2023/01/19 13:50:59;;;;;;;;;;;1.70;99.90;;;;;;5094751;28;20373;-73
2023/01/19 13:53:24;;;;;;;;;;;1.80;99.90;;;;;;5093399;28;20279;-73
2023/01/19 13:56:15;;;;;;;;;;;1.80;99.90;;;;;;5095450;28;19916;-71
2023/01/19 13:58:41;;;;;;;;;;;1.70;99.90;;;;;;5093860;28;19912;-66
2023/01/19 14:01:18;;;;;;;;;;;2.00;99.90;;;;;;5093452;28;19918;-71
2023/01/19 14:03:50;;;;;;;;;;;2.10;99.90;;;;;;5093455;28;19957;-71
2023/01/19 14:06:42;;;;;;;;;;;2.10;99.90;;;;;;5093339;28;19912;-71
2023/01/19 14:09:16;;;;;;;;;;;2.00;99.90;;;;;;5091123;28;20348;-67
2023/01/19 14:11:43;;;;;;;;;;;2.00;99.90;;;;;;5094885;28;19916;-73
2023/01/19 14:14:24;;;;;;;;;;;2.00;99.90;;;;;;5089651;28;20360;-73
2023/01/19 14:16:50;;;;;;;;;;;2.00;99.90;;;;;;5091305;28;19918;-72
2023/01/19 14:19:15;;;;;;;;;;;2.10;99.90;;;;;;5093997;28;19912;-72
2023/01/19 14:21:44;;;;;;;;;;;2.10;99.90;;;;;;5075817;28;19916;-71
2023/01/19 14:24:17;;;;;;;;;;;1.90;99.90;;;;;;5092742;28;19927;-73
2023/01/19 14:26:45;;;;;;;;;;;1.80;99.90;;;;;;5093224;28;20252;-69
2023/01/19 14:29:13;;;;;;;;;;;1.90;99.90;;;;;;5094732;28;19912;-67
2023/01/19 14:31:45;;;;;;;;;;;2.00;99.90;;;;;;5093534;28;19920;-70
2023/01/19 14:34:40;;;;;;;;;;;2.00;99.90;;;;;;5093103;28;19919;-67
2023/01/19 14:37:20;;;;;;;;;;;1.90;99.90;;;;;;5091361;28;19956;-73
2023/01/19 14:39:48;;;;;;;;;;;1.90;99.90;;;;;;5094939;28;20371;-73